createdAt,value
2016-09-19T00:00:04.203Z,16.25
2016-09-19T00:00:44.743Z,16.23
2016-09-19T00:01:25.285Z,16.15
2016-09-19T00:02:05.823Z,16.24
2016-09-19T00:02:46.375Z,16.17
2016-09-19T00:03:26.908Z,16.23
2016-09-19T00:04:07.452Z,16.21
2016-09-19T00:04:47.985Z,16.3
2016-09-19T00:05:28.531Z,16.2
2016-09-19T00:06:09.073Z,16.21
2016-09-19T00:06:49.618Z,16.11
2016-09-19T00:07:30.165Z,16.12
2016-09-19T00:08:10.710Z,16.08
2016-09-19T00:08:51.262Z,16.09
2016-09-19T00:09:31.796Z,16.05
2016-09-19T00:10:12.331Z,16.08
2016-09-19T00:10:52.865Z,16.09
2016-09-19T00:11:33.404Z,16.09
2016-09-19T00:12:13.945Z,16.05
2016-09-19T00:12:54.492Z,16.02
2016-09-19T00:13:35.040Z,16.08
2016-09-19T00:14:15.582Z,16
2016-09-19T00:14:56.128Z,16
2016-09-19T00:15:36.676Z,16.02
2016-09-19T00:16:17.224Z,16.11
2016-09-19T00:16:57.766Z,15.97
2016-09-19T00:17:38.305Z,16.02
2016-09-19T00:18:18.847Z,16
2016-09-19T00:18:59.378Z,15.92
2016-09-19T00:19:39.919Z,16.01
2016-09-19T00:20:20.460Z,16
2016-09-19T00:21:01.008Z,16.01
2016-09-19T00:21:41.554Z,16.07
2016-09-19T00:22:22.099Z,15.97
2016-09-19T00:23:02.643Z,16.05
2016-09-19T00:23:43.187Z,16.02
2016-09-19T00:24:23.731Z,16
2016-09-19T00:25:04.278Z,15.94
2016-09-19T00:25:44.825Z,15.9
2016-09-19T00:26:25.372Z,15.93
2016-09-19T00:27:05.914Z,15.92
2016-09-19T00:27:46.456Z,15.86
2016-09-19T00:28:26.998Z,15.94
2016-09-19T00:29:07.536Z,15.84
2016-09-19T00:29:48.091Z,15.89
2016-09-19T00:30:28.636Z,15.92
2016-09-19T00:31:09.178Z,15.87
2016-09-19T00:31:49.719Z,15.94
2016-09-19T00:32:30.267Z,15.89
2016-09-19T00:33:10.815Z,15.93
2016-09-19T00:33:51.357Z,15.93
2016-09-19T00:34:31.903Z,15.92
2016-09-19T00:35:12.444Z,15.82
2016-09-19T00:35:52.987Z,15.84
2016-09-19T00:36:33.528Z,15.92
2016-09-19T00:37:14.068Z,15.86
2016-09-19T00:37:54.623Z,15.86
2016-09-19T00:38:35.161Z,15.82
2016-09-19T00:39:15.707Z,15.86
2016-09-19T00:39:56.253Z,15.8
2016-09-19T00:40:36.789Z,15.83
2016-09-19T00:41:17.328Z,15.83
2016-09-19T00:41:57.874Z,15.83
2016-09-19T00:42:38.424Z,15.8
2016-09-19T00:43:18.970Z,15.83
2016-09-19T00:43:59.516Z,15.84
2016-09-19T00:44:40.055Z,15.8
2016-09-19T00:45:20.606Z,15.83
2016-09-19T00:46:01.144Z,15.8
2016-09-19T00:46:41.685Z,15.78
2016-09-19T00:47:22.217Z,15.8
2016-09-19T00:48:02.764Z,15.82
2016-09-19T00:48:43.303Z,15.84
2016-09-19T00:49:23.849Z,15.82
2016-09-19T00:50:04.381Z,15.82
2016-09-19T00:50:44.930Z,15.86
2016-09-19T00:51:25.473Z,15.76
2016-09-19T00:52:06.016Z,15.82
2016-09-19T00:52:46.548Z,15.8
2016-09-19T00:53:27.074Z,15.83
2016-09-19T00:54:07.609Z,15.78
2016-09-19T00:54:48.158Z,15.84
2016-09-19T00:55:28.703Z,15.84
2016-09-19T00:56:09.242Z,15.78
2016-09-19T00:56:49.800Z,15.82
2016-09-19T00:57:30.344Z,15.78
2016-09-19T00:58:10.889Z,15.82
2016-09-19T00:58:51.438Z,15.8
2016-09-19T00:59:31.979Z,15.82
2016-09-19T01:00:12.522Z,15.8
2016-09-19T01:00:53.068Z,15.8
2016-09-19T01:01:33.611Z,15.82
2016-09-19T01:02:14.155Z,15.82
2016-09-19T01:02:54.688Z,15.78
2016-09-19T01:03:35.228Z,15.78
2016-09-19T01:04:15.767Z,15.83
2016-09-19T01:04:56.310Z,15.68
2016-09-19T01:05:36.853Z,15.74
2016-09-19T01:06:17.385Z,15.78
2016-09-19T01:06:57.922Z,15.76
2016-09-19T01:07:38.448Z,15.76
2016-09-19T01:08:18.989Z,15.78
2016-09-19T01:08:59.521Z,15.67
2016-09-19T01:09:40.062Z,15.75
2016-09-19T01:10:20.602Z,15.75
2016-09-19T01:11:01.147Z,15.78
2016-09-19T01:11:41.688Z,15.71
2016-09-19T01:12:22.231Z,15.69
2016-09-19T01:13:02.762Z,15.68
2016-09-19T01:13:43.308Z,15.69
2016-09-19T01:14:23.830Z,15.71
2016-09-19T01:15:04.378Z,15.65
2016-09-19T01:15:44.929Z,15.68
2016-09-19T01:16:25.478Z,15.6
2016-09-19T01:17:06.005Z,15.65
2016-09-19T01:17:46.563Z,15.54
2016-09-19T01:18:27.090Z,15.67
2016-09-19T01:19:07.636Z,15.56
2016-09-19T01:19:48.186Z,15.62
2016-09-19T01:20:28.733Z,15.57
2016-09-19T01:21:09.272Z,15.57
2016-09-19T01:21:49.815Z,15.56
2016-09-19T01:22:30.354Z,15.6
2016-09-19T01:23:10.886Z,15.62
2016-09-19T01:23:51.432Z,15.64
2016-09-19T01:24:31.969Z,15.68
2016-09-19T01:25:12.519Z,15.59
2016-09-19T01:25:53.056Z,15.56
2016-09-19T01:26:33.599Z,15.57
2016-09-19T01:27:14.138Z,15.56
2016-09-19T01:27:54.668Z,15.59
2016-09-19T01:28:35.209Z,15.56
2016-09-19T01:29:15.762Z,15.62
2016-09-19T01:29:56.311Z,15.59
2016-09-19T01:30:36.836Z,15.6
2016-09-19T01:31:17.371Z,15.56
2016-09-19T01:31:57.904Z,15.54
2016-09-19T01:32:38.448Z,15.56
2016-09-19T01:33:18.987Z,15.59
2016-09-19T01:33:59.545Z,15.59
2016-09-19T01:34:40.113Z,15.65
2016-09-19T01:35:20.662Z,15.59
2016-09-19T01:36:01.202Z,15.59
2016-09-19T01:36:41.743Z,15.57
2016-09-19T01:37:22.266Z,15.59
2016-09-19T01:38:02.814Z,15.67
2016-09-19T01:38:43.324Z,15.64
2016-09-19T01:39:23.863Z,15.57
2016-09-19T01:40:04.410Z,15.6
2016-09-19T01:40:44.947Z,15.6
2016-09-19T01:41:25.476Z,15.6
2016-09-19T01:42:06.005Z,15.56
2016-09-19T01:42:46.547Z,15.59
2016-09-19T01:43:27.104Z,15.53
2016-09-19T01:44:07.638Z,15.57
2016-09-19T01:44:48.181Z,15.6
2016-09-19T01:45:28.711Z,15.64
2016-09-19T01:46:09.248Z,15.62
2016-09-19T01:46:49.791Z,15.54
2016-09-19T01:47:30.325Z,15.67
2016-09-19T01:48:10.857Z,15.65
2016-09-19T01:48:51.412Z,15.67
2016-09-19T01:49:31.938Z,15.65
2016-09-19T01:50:12.471Z,15.64
2016-09-19T01:50:52.991Z,15.64
2016-09-19T01:51:33.521Z,15.6
2016-09-19T01:52:14.065Z,15.65
2016-09-19T01:52:54.595Z,15.57
2016-09-19T01:53:35.134Z,15.62
2016-09-19T01:54:15.664Z,15.59
2016-09-19T01:54:56.201Z,15.65
2016-09-19T01:55:36.708Z,15.56
2016-09-19T01:56:17.263Z,15.56
2016-09-19T01:56:57.796Z,15.62
2016-09-19T01:57:38.343Z,15.62
2016-09-19T01:58:18.894Z,15.59
2016-09-19T01:58:59.443Z,15.62
2016-09-19T01:59:39.985Z,15.65
2016-09-19T02:00:20.519Z,15.6
2016-09-19T02:01:01.056Z,15.54
2016-09-19T02:01:41.601Z,15.68
2016-09-19T02:02:22.136Z,15.62
2016-09-19T02:03:02.665Z,15.51
2016-09-19T02:03:43.201Z,15.68
2016-09-19T02:04:23.751Z,15.56
2016-09-19T02:05:04.303Z,15.62
2016-09-19T02:05:44.850Z,15.6
2016-09-19T02:06:25.390Z,15.57
2016-09-19T02:07:05.921Z,15.59
2016-09-19T02:07:46.462Z,15.65
2016-09-19T02:08:26.995Z,15.54
2016-09-19T02:09:07.538Z,15.65
2016-09-19T02:09:48.078Z,15.62
2016-09-19T02:10:28.601Z,15.62
2016-09-19T02:11:09.151Z,15.56
2016-09-19T02:11:49.690Z,15.53
2016-09-19T02:12:30.235Z,15.6
2016-09-19T02:13:10.779Z,15.62
2016-09-19T02:13:51.304Z,15.54
2016-09-19T02:14:31.839Z,15.57
2016-09-19T02:15:12.375Z,15.62
2016-09-19T02:15:52.918Z,15.65
2016-09-19T02:16:33.467Z,15.68
2016-09-19T02:17:14.004Z,15.64
2016-09-19T02:17:54.533Z,15.56
2016-09-19T02:18:35.076Z,15.56
2016-09-19T02:19:15.601Z,15.56
2016-09-19T02:19:56.130Z,15.59
2016-09-19T02:20:36.671Z,15.6
2016-09-19T02:21:17.195Z,15.57
2016-09-19T02:21:57.743Z,15.64
2016-09-19T02:22:38.277Z,15.59
2016-09-19T02:23:18.799Z,15.65
2016-09-19T02:23:59.330Z,15.57
2016-09-19T02:24:39.859Z,15.57
2016-09-19T02:25:20.417Z,15.62
2016-09-19T02:26:00.954Z,15.59
2016-09-19T02:26:41.496Z,15.62
2016-09-19T02:27:22.043Z,15.56
2016-09-19T02:28:02.591Z,15.57
2016-09-19T02:28:43.126Z,15.56
2016-09-19T02:29:23.660Z,15.67
2016-09-19T02:30:04.185Z,15.56
2016-09-19T02:30:44.710Z,15.53
2016-09-19T02:31:25.248Z,15.62
2016-09-19T02:32:05.798Z,15.62
2016-09-19T02:32:46.333Z,15.64
2016-09-19T02:33:26.862Z,15.6
2016-09-19T02:34:07.398Z,15.56
2016-09-19T02:34:47.957Z,15.56
2016-09-19T02:35:28.485Z,15.65
2016-09-19T02:36:09.027Z,15.6
2016-09-19T02:36:49.575Z,15.6
2016-09-19T02:37:30.116Z,15.57
2016-09-19T02:38:10.657Z,15.62
2016-09-19T02:38:51.184Z,15.64
2016-09-19T02:39:31.735Z,15.57
2016-09-19T02:40:12.271Z,15.6
2016-09-19T02:40:52.813Z,15.64
2016-09-19T02:41:33.355Z,15.59
2016-09-19T02:42:13.907Z,15.57
2016-09-19T02:42:54.438Z,15.59
2016-09-19T02:43:34.990Z,15.51
2016-09-19T02:44:15.533Z,15.59
2016-09-19T02:44:56.056Z,15.51
2016-09-19T02:45:36.606Z,15.59
2016-09-19T02:46:17.141Z,15.57
2016-09-19T02:46:57.671Z,15.59
2016-09-19T02:47:38.206Z,15.54
2016-09-19T02:48:18.741Z,15.53
2016-09-19T02:48:59.287Z,15.56
2016-09-19T02:49:39.830Z,15.49
2016-09-19T02:50:20.377Z,15.47
2016-09-19T02:51:00.902Z,15.54
2016-09-19T02:51:41.445Z,15.57
2016-09-19T02:52:21.979Z,15.49
2016-09-19T02:53:02.531Z,15.47
2016-09-19T02:53:43.062Z,15.54
2016-09-19T02:54:23.616Z,15.5
2016-09-19T02:55:04.153Z,15.5
2016-09-19T02:55:44.692Z,15.51
2016-09-19T02:56:25.232Z,15.46
2016-09-19T02:57:05.770Z,15.51
2016-09-19T02:57:46.316Z,15.5
2016-09-19T02:58:26.861Z,15.47
2016-09-19T02:59:07.383Z,15.5
2016-09-19T02:59:47.931Z,15.49
2016-09-19T03:00:28.467Z,15.5
2016-09-19T03:01:08.996Z,15.49
2016-09-19T03:01:49.544Z,15.49
2016-09-19T03:02:30.086Z,15.5
2016-09-19T03:03:10.615Z,15.47
2016-09-19T03:03:51.143Z,15.47
2016-09-19T03:04:31.684Z,15.5
2016-09-19T03:05:12.238Z,15.5
2016-09-19T03:05:52.826Z,15.49
2016-09-19T03:06:33.327Z,15.51
2016-09-19T03:07:13.860Z,15.51
2016-09-19T03:07:54.408Z,15.5
2016-09-19T03:08:34.971Z,15.49
2016-09-19T03:09:15.516Z,15.44
2016-09-19T03:09:56.053Z,15.53
2016-09-19T03:10:36.590Z,15.5
2016-09-19T03:11:17.136Z,15.46
2016-09-19T03:11:57.676Z,15.51
2016-09-19T03:12:38.210Z,15.49
2016-09-19T03:13:18.746Z,15.5
2016-09-19T03:13:59.278Z,15.53
2016-09-19T03:14:39.831Z,15.46
2016-09-19T03:15:20.379Z,15.47
2016-09-19T03:16:00.921Z,15.47
2016-09-19T03:16:41.468Z,15.49
2016-09-19T03:17:22.010Z,15.47
2016-09-19T03:18:02.542Z,15.46
2016-09-19T03:18:43.078Z,15.44
2016-09-19T03:19:23.599Z,15.39
2016-09-19T03:20:04.132Z,15.5
2016-09-19T03:20:44.684Z,15.46
2016-09-19T03:21:25.224Z,15.46
2016-09-19T03:22:05.759Z,15.39
2016-09-19T03:22:46.306Z,15.46
2016-09-19T03:23:26.852Z,15.41
2016-09-19T03:24:07.391Z,15.47
2016-09-19T03:24:47.931Z,15.46
2016-09-19T03:25:28.477Z,15.49
2016-09-19T03:26:09.011Z,15.46
2016-09-19T03:26:49.562Z,15.49
2016-09-19T03:27:30.098Z,15.39
2016-09-19T03:28:10.635Z,15.38
2016-09-19T03:28:51.174Z,15.47
2016-09-19T03:29:31.725Z,15.49
2016-09-19T03:30:12.273Z,15.41
2016-09-19T03:30:52.821Z,15.46
2016-09-19T03:31:33.372Z,15.41
2016-09-19T03:32:13.915Z,15.41
2016-09-19T03:32:54.461Z,15.44
2016-09-19T03:33:34.998Z,15.39
2016-09-19T03:34:15.547Z,15.41
2016-09-19T03:34:56.081Z,15.35
2016-09-19T03:35:36.624Z,15.39
2016-09-19T03:36:17.167Z,15.44
2016-09-19T03:36:57.710Z,15.35
2016-09-19T03:37:38.239Z,15.39
2016-09-19T03:38:18.778Z,15.29
2016-09-19T03:38:59.322Z,15.31
2016-09-19T03:39:39.865Z,15.34
2016-09-19T03:40:20.415Z,15.38
2016-09-19T03:41:00.948Z,15.35
2016-09-19T03:41:41.491Z,15.35
2016-09-19T03:42:22.026Z,15.32
2016-09-19T03:43:02.568Z,15.31
2016-09-19T03:43:43.131Z,15.31
2016-09-19T03:44:23.664Z,15.32
2016-09-19T03:45:04.199Z,15.38
2016-09-19T03:45:44.743Z,15.34
2016-09-19T03:46:25.294Z,15.31
2016-09-19T03:47:05.836Z,15.32
2016-09-19T03:47:46.384Z,15.34
2016-09-19T03:48:26.921Z,15.28
2016-09-19T03:49:07.473Z,15.29
2016-09-19T03:49:48.020Z,15.25
2016-09-19T03:50:28.558Z,15.34
2016-09-19T03:51:09.101Z,15.23
2016-09-19T03:51:49.631Z,15.27
2016-09-19T03:52:30.165Z,15.25
2016-09-19T03:53:10.711Z,15.21
2016-09-19T03:53:51.253Z,15.27
2016-09-19T03:54:31.803Z,15.23
2016-09-19T03:55:12.353Z,15.2
2016-09-19T03:55:52.906Z,15.27
2016-09-19T03:56:33.455Z,15.2
2016-09-19T03:57:14.010Z,15.27
2016-09-19T03:57:54.556Z,15.27
2016-09-19T03:58:35.095Z,15.2
2016-09-19T03:59:15.617Z,15.28
2016-09-19T03:59:56.146Z,15.27
2016-09-19T04:00:36.678Z,15.2
2016-09-19T04:01:17.221Z,15.23
2016-09-19T04:01:57.779Z,15.25
2016-09-19T04:02:38.294Z,15.32
2016-09-19T04:03:18.840Z,15.31
2016-09-19T04:03:59.389Z,15.21
2016-09-19T04:04:39.936Z,15.19
2016-09-19T04:05:20.484Z,15.17
2016-09-19T04:06:01.023Z,15.2
2016-09-19T04:06:41.551Z,15.2
2016-09-19T04:07:22.076Z,15.17
2016-09-19T04:08:02.614Z,15.19
2016-09-19T04:08:43.174Z,15.23
2016-09-19T04:09:23.716Z,15.23
2016-09-19T04:10:04.277Z,15.23
2016-09-19T04:10:44.814Z,15.23
2016-09-19T04:11:25.356Z,15.2
2016-09-19T04:12:05.900Z,15.25
2016-09-19T04:12:46.438Z,15.2
2016-09-19T04:13:26.979Z,15.2
2016-09-19T04:14:07.520Z,15.19
2016-09-19T04:14:48.053Z,15.25
2016-09-19T04:15:28.600Z,15.23
2016-09-19T04:16:09.135Z,15.23
2016-09-19T04:16:49.660Z,15.25
2016-09-19T04:17:30.205Z,15.23
2016-09-19T04:18:10.739Z,15.2
2016-09-19T04:18:51.294Z,15.19
2016-09-19T04:19:31.817Z,15.25
2016-09-19T04:20:12.345Z,15.17
2016-09-19T04:20:52.883Z,15.17
2016-09-19T04:21:33.433Z,15.2
2016-09-19T04:22:13.972Z,15.23
2016-09-19T04:22:54.552Z,15.21
2016-09-19T04:23:35.346Z,15.25
2016-09-19T04:24:15.889Z,15.19
2016-09-19T04:24:56.431Z,15.25
2016-09-19T04:25:36.960Z,15.21
2016-09-19T04:26:17.488Z,15.16
2016-09-19T04:26:58.304Z,15.17
2016-09-19T04:27:38.832Z,15.21
2016-09-19T04:28:19.373Z,15.25
2016-09-19T04:28:59.909Z,15.21
2016-09-19T04:29:40.462Z,15.19
2016-09-19T04:30:21.504Z,15.21
2016-09-19T04:31:02.060Z,15.14
2016-09-19T04:31:42.604Z,15.21
2016-09-19T04:32:23.144Z,15.23
2016-09-19T04:33:03.689Z,15.27
2016-09-19T04:33:44.238Z,15.19
2016-09-19T04:34:24.785Z,15.25
2016-09-19T04:35:05.334Z,15.25
2016-09-19T04:35:45.874Z,15.21
2016-09-19T04:36:26.401Z,15.19
2016-09-19T04:37:06.935Z,15.17
2016-09-19T04:37:47.457Z,15.25
2016-09-19T04:38:28.006Z,15.25
2016-09-19T04:39:08.545Z,15.23
2016-09-19T04:39:49.090Z,15.21
2016-09-19T04:40:29.626Z,15.19
2016-09-19T04:41:10.152Z,15.19
2016-09-19T04:41:50.685Z,15.19
2016-09-19T04:42:31.219Z,15.19
2016-09-19T04:43:11.752Z,15.17
2016-09-19T04:43:52.279Z,15.17
2016-09-19T04:44:32.817Z,15.19
2016-09-19T04:45:13.341Z,15.23
2016-09-19T04:45:53.856Z,15.16
2016-09-19T04:46:34.403Z,15.13
2016-09-19T04:47:14.948Z,15.2
2016-09-19T04:47:55.496Z,15.2
2016-09-19T04:48:36.020Z,15.17
2016-09-19T04:49:16.555Z,15.16
2016-09-19T04:49:57.089Z,15.2
2016-09-19T04:50:37.639Z,15.19
2016-09-19T04:51:18.173Z,15.16
2016-09-19T04:51:58.709Z,15.14
2016-09-19T04:52:39.253Z,15.17
2016-09-19T04:53:19.801Z,15.17
2016-09-19T04:54:00.339Z,15.21
2016-09-19T04:54:40.876Z,15.17
2016-09-19T04:55:21.412Z,15.17
2016-09-19T04:56:01.955Z,15.17
2016-09-19T04:56:42.487Z,15.14
2016-09-19T04:57:23.031Z,15.17
2016-09-19T04:58:03.583Z,15.09
2016-09-19T04:58:44.135Z,15.13
2016-09-19T04:59:24.676Z,15.14
2016-09-19T05:00:05.210Z,15.13
2016-09-19T05:00:45.754Z,15.13
2016-09-19T05:01:26.298Z,15.19
2016-09-19T05:02:06.834Z,15.21
2016-09-19T05:02:47.373Z,15.17
2016-09-19T05:03:27.920Z,15.16
2016-09-19T05:04:08.460Z,15.16
2016-09-19T05:04:49.005Z,15.17
2016-09-19T05:05:29.546Z,15.1
2016-09-19T05:06:10.091Z,15.09
2016-09-19T05:06:50.638Z,15.25
2016-09-19T05:07:31.183Z,15.14
2016-09-19T05:08:11.737Z,15.14
2016-09-19T05:08:52.290Z,15.16
2016-09-19T05:09:32.823Z,15.19
2016-09-19T05:10:13.365Z,15.19
2016-09-19T05:10:53.910Z,15.13
2016-09-19T05:11:34.459Z,15.11
2016-09-19T05:12:15.005Z,15.17
2016-09-19T05:12:55.555Z,15.14
2016-09-19T05:13:36.085Z,15.11
2016-09-19T05:14:16.632Z,15.1
2016-09-19T05:14:57.163Z,15.11
2016-09-19T05:15:37.711Z,15.17
2016-09-19T05:16:18.263Z,15.16
2016-09-19T05:16:58.798Z,15.19
2016-09-19T05:17:39.348Z,15.13
2016-09-19T05:18:19.882Z,15.1
2016-09-19T05:19:00.423Z,15.14
2016-09-19T05:19:40.962Z,15.17
2016-09-19T05:20:21.502Z,15.1
2016-09-19T05:21:02.025Z,15.19
2016-09-19T05:21:42.569Z,15.17
2016-09-19T05:22:23.119Z,15.16
2016-09-19T05:23:03.659Z,15.17
2016-09-19T05:23:44.208Z,15.16
2016-09-19T05:24:24.773Z,15.1
2016-09-19T05:25:05.317Z,15.13
2016-09-19T05:25:45.861Z,15.16
2016-09-19T05:26:26.409Z,15.19
2016-09-19T05:27:06.934Z,15.14
2016-09-19T05:27:47.481Z,15.19
2016-09-19T05:28:28.026Z,15.2
2016-09-19T05:29:08.550Z,15.11
2016-09-19T05:29:49.078Z,15.16
2016-09-19T05:30:29.636Z,15.2
2016-09-19T05:31:10.178Z,15.19
2016-09-19T05:31:50.732Z,15.1
2016-09-19T05:32:31.270Z,15.1
2016-09-19T05:33:11.812Z,15.21
2016-09-19T05:33:52.340Z,15.14
2016-09-19T05:34:32.857Z,15.14
2016-09-19T05:35:13.396Z,15.14
2016-09-19T05:35:53.911Z,15.09
2016-09-19T05:36:34.441Z,15.19
2016-09-19T05:37:14.986Z,15.13
2016-09-19T05:37:55.525Z,15.14
2016-09-19T05:38:36.024Z,15.14
2016-09-19T05:39:16.562Z,15.13
2016-09-19T05:39:57.092Z,15.16
2016-09-19T05:40:37.615Z,15.11
2016-09-19T05:41:18.143Z,15.14
2016-09-19T05:41:58.658Z,15.13
2016-09-19T05:42:39.205Z,15.16
2016-09-19T05:43:19.747Z,15.13
2016-09-19T05:44:00.277Z,15.17
2016-09-19T05:44:40.808Z,15.16
2016-09-19T05:45:21.359Z,15.17
2016-09-19T05:46:01.880Z,15.17
2016-09-19T05:46:42.428Z,15.16
2016-09-19T05:47:22.961Z,15.21
2016-09-19T05:48:03.484Z,15.21
2016-09-19T05:48:44.011Z,15.19
2016-09-19T05:49:24.548Z,15.16
2016-09-19T05:50:05.089Z,15.17
2016-09-19T05:50:45.623Z,15.25
2016-09-19T05:51:26.174Z,15.21
2016-09-19T05:52:06.683Z,15.23
2016-09-19T05:52:47.223Z,15.23
2016-09-19T05:53:27.758Z,15.2
2016-09-19T05:54:08.301Z,15.23
2016-09-19T05:54:48.844Z,15.28
2016-09-19T05:55:29.402Z,15.23
2016-09-19T05:56:09.944Z,15.23
2016-09-19T05:56:50.479Z,15.29
2016-09-19T05:57:31.004Z,15.25
2016-09-19T05:58:11.523Z,15.25
2016-09-19T05:58:52.054Z,15.25
2016-09-19T05:59:32.577Z,15.35
2016-09-19T06:00:13.114Z,15.27
2016-09-19T06:00:53.634Z,15.31
2016-09-19T06:01:34.160Z,15.31
2016-09-19T06:02:14.709Z,15.38
2016-09-19T06:02:55.255Z,15.35
2016-09-19T06:03:35.803Z,15.38
2016-09-19T06:04:16.330Z,15.32
2016-09-19T06:04:56.849Z,15.35
2016-09-19T06:05:37.389Z,15.34
2016-09-19T06:06:17.925Z,15.44
2016-09-19T06:06:58.456Z,15.41
2016-09-19T06:07:38.991Z,15.41
2016-09-19T06:08:19.504Z,15.36
2016-09-19T06:09:00.034Z,15.41
2016-09-19T06:09:40.569Z,15.41
2016-09-19T06:10:21.106Z,15.43
2016-09-19T06:11:01.625Z,15.44
2016-09-19T06:11:42.161Z,15.49
2016-09-19T06:12:22.676Z,15.44
2016-09-19T06:13:03.220Z,15.51
2016-09-19T06:13:43.765Z,15.49
2016-09-19T06:14:24.319Z,15.46
2016-09-19T06:15:04.849Z,15.5
2016-09-19T06:15:45.386Z,15.54
2016-09-19T06:16:25.922Z,15.51
2016-09-19T06:17:06.463Z,15.53
2016-09-19T06:17:47.008Z,15.56
2016-09-19T06:18:27.526Z,15.56
2016-09-19T06:19:08.064Z,15.62
2016-09-19T06:19:48.574Z,15.6
2016-09-19T06:20:29.106Z,15.6
2016-09-19T06:21:09.647Z,15.65
2016-09-19T06:21:50.183Z,15.6
2016-09-19T06:22:30.712Z,15.59
2016-09-19T06:23:11.232Z,15.54
2016-09-19T06:23:51.761Z,15.68
2016-09-19T06:24:32.282Z,15.57
2016-09-19T06:25:12.795Z,15.62
2016-09-19T06:25:53.326Z,15.6
2016-09-19T06:26:33.845Z,15.62
2016-09-19T06:27:14.361Z,15.62
2016-09-19T06:27:54.897Z,15.67
2016-09-19T06:28:35.429Z,15.75
2016-09-19T06:29:15.968Z,15.68
2016-09-19T06:29:56.505Z,15.68
2016-09-19T06:30:37.006Z,15.69
2016-09-19T06:31:17.548Z,15.68
2016-09-19T06:31:58.085Z,15.76
2016-09-19T06:32:38.596Z,15.67
2016-09-19T06:33:19.116Z,15.78
2016-09-19T06:33:59.637Z,15.75
2016-09-19T06:34:40.161Z,15.78
2016-09-19T06:35:20.714Z,15.8
2016-09-19T06:36:01.254Z,15.83
2016-09-19T06:36:41.773Z,15.82
2016-09-19T06:37:22.302Z,15.86
2016-09-19T06:38:02.836Z,15.82
2016-09-19T06:38:43.368Z,15.9
2016-09-19T06:39:23.902Z,15.89
2016-09-19T06:40:04.439Z,15.87
2016-09-19T06:40:44.969Z,15.93
2016-09-19T06:41:25.492Z,15.9
2016-09-19T06:42:06.041Z,15.9
2016-09-19T06:42:46.577Z,15.97
2016-09-19T06:43:27.115Z,16
2016-09-19T06:44:07.644Z,15.83
2016-09-19T06:44:48.166Z,15.93
2016-09-19T06:45:28.707Z,16
2016-09-19T06:46:09.238Z,15.94
2016-09-19T06:46:49.782Z,15.96
2016-09-19T06:47:30.317Z,16
2016-09-19T06:48:10.842Z,15.94
2016-09-19T06:48:51.375Z,16
2016-09-19T06:49:31.932Z,16
2016-09-19T06:50:12.467Z,15.9
2016-09-19T06:52:26.748Z,16.01
2016-09-19T06:53:07.281Z,16
2016-09-19T06:53:47.826Z,16.02
2016-09-19T06:54:28.377Z,16.08
2016-09-19T06:55:08.913Z,16
2016-09-19T06:55:49.465Z,15.89
2016-09-19T06:56:30.014Z,15.97
2016-09-19T06:57:10.552Z,15.96
2016-09-19T06:57:51.091Z,16
2016-09-19T06:58:31.613Z,16.01
2016-09-19T06:59:12.144Z,16.04
2016-09-19T06:59:52.673Z,15.93
2016-09-19T07:00:33.217Z,16.07
2016-09-19T07:01:13.748Z,16.07
2016-09-19T07:01:54.276Z,16.05
2016-09-19T07:02:34.851Z,16.02
2016-09-19T07:03:15.453Z,16.08
2016-09-19T07:03:55.987Z,16.07
2016-09-19T07:04:36.526Z,16.09
2016-09-19T07:05:17.058Z,16.09
2016-09-19T07:05:57.598Z,16.05
2016-09-19T07:06:38.124Z,16.07
2016-09-19T07:07:18.662Z,16.2
2016-09-19T07:07:59.194Z,16.07
2016-09-19T07:08:39.740Z,16.07
2016-09-19T07:09:20.257Z,16.07
2016-09-19T07:10:00.780Z,16.08
2016-09-19T07:10:41.401Z,16.07
2016-09-19T07:11:21.943Z,16.01
2016-09-19T07:12:02.477Z,16.07
2016-09-19T07:12:43.029Z,16.07
2016-09-19T07:13:23.551Z,16.05
2016-09-19T07:14:04.074Z,16.04
2016-09-19T07:14:44.699Z,16.05
2016-09-19T07:15:25.232Z,16
2016-09-19T07:16:05.741Z,16.02
2016-09-19T07:16:46.259Z,16.04
2016-09-19T07:17:26.813Z,16.04
2016-09-19T07:18:07.339Z,16.02
2016-09-19T07:18:47.882Z,16.02
2016-09-19T07:19:28.428Z,16.08
2016-09-19T07:20:08.972Z,16.02
2016-09-19T07:20:49.509Z,16.02
2016-09-19T07:21:30.048Z,16.01
2016-09-19T07:22:10.571Z,16.11
2016-09-19T07:22:51.102Z,16.21
2016-09-19T07:23:31.628Z,16.12
2016-09-19T07:24:12.159Z,16.15
2016-09-19T07:24:52.703Z,16.27
2016-09-19T07:25:33.241Z,16.21
2016-09-19T07:26:13.777Z,16.15
2016-09-19T07:26:54.305Z,16.25
2016-09-19T07:27:34.836Z,16.33
2016-09-19T07:28:15.359Z,16.33
2016-09-19T07:28:55.879Z,16.27
2016-09-19T07:29:36.424Z,16.38
2016-09-19T07:30:16.963Z,16.42
2016-09-19T07:30:57.490Z,16.38
2016-09-19T07:31:38.032Z,16.41
2016-09-19T07:32:18.564Z,16.43
2016-09-19T07:32:59.103Z,16.43
2016-09-19T07:33:39.632Z,16.46
2016-09-19T07:34:20.178Z,16.48
2016-09-19T07:35:00.711Z,16.46
2016-09-19T07:35:41.270Z,16.48
2016-09-19T07:36:21.802Z,16.58
2016-09-19T07:37:02.347Z,16.45
2016-09-19T07:37:42.896Z,16.48
2016-09-19T07:38:23.444Z,16.45
2016-09-19T07:39:03.962Z,16.56
2016-09-19T07:39:44.501Z,16.56
2016-09-19T07:40:25.033Z,16.52
2016-09-19T07:41:05.566Z,16.58
2016-09-19T07:41:46.096Z,16.53
2016-09-19T07:42:26.632Z,16.53
2016-09-19T07:43:07.160Z,16.48
2016-09-19T07:43:47.683Z,16.56
2016-09-19T07:44:28.217Z,16.6
2016-09-19T07:45:08.755Z,16.61
2016-09-19T07:45:49.298Z,16.57
2016-09-19T07:46:29.825Z,16.6
2016-09-19T07:47:10.363Z,16.68
2016-09-19T07:47:50.907Z,16.63
2016-09-19T07:48:31.442Z,16.66
2016-09-19T07:49:11.984Z,16.7
2016-09-19T07:49:52.504Z,16.73
2016-09-19T07:50:33.056Z,16.7
2016-09-19T07:51:13.595Z,16.76
2016-09-19T07:51:54.129Z,16.81
2016-09-19T07:52:34.677Z,16.76
2016-09-19T07:53:15.219Z,16.79
2016-09-19T07:53:55.747Z,16.81
2016-09-19T07:54:36.271Z,16.81
2016-09-19T07:55:16.814Z,16.82
2016-09-19T07:55:57.339Z,16.83
2016-09-19T07:56:37.881Z,16.83
2016-09-19T07:57:18.415Z,16.81
2016-09-19T07:57:58.929Z,16.86
2016-09-19T07:58:39.461Z,16.81
2016-09-19T07:59:19.993Z,16.81
2016-09-19T08:00:00.528Z,16.83
2016-09-19T08:00:41.051Z,16.83
2016-09-19T08:01:21.576Z,16.82
2016-09-19T08:02:02.114Z,16.94
2016-09-19T08:02:42.654Z,16.88
2016-09-19T08:03:23.192Z,16.89
2016-09-19T08:04:03.744Z,16.89
2016-09-19T08:04:44.274Z,16.94
2016-09-19T08:05:24.804Z,16.93
2016-09-19T08:06:05.353Z,16.98
2016-09-19T08:06:45.889Z,16.93
2016-09-19T08:07:26.436Z,16.97
2016-09-19T08:08:06.964Z,16.98
2016-09-19T08:08:47.506Z,16.98
2016-09-19T08:09:28.047Z,17.03
2016-09-19T08:10:08.578Z,17.04
2016-09-19T08:10:49.115Z,17.01
2016-09-19T08:11:29.639Z,17.03
2016-09-19T08:12:10.194Z,17.04
2016-09-19T08:12:50.723Z,17.07
2016-09-19T08:13:31.248Z,17.04
2016-09-19T08:14:11.786Z,17.07
2016-09-19T08:14:52.328Z,17.06
2016-09-19T08:15:32.874Z,17.06
2016-09-19T08:16:13.403Z,17.08
2016-09-19T08:16:53.963Z,17.06
2016-09-19T08:17:34.503Z,17.03
2016-09-19T08:18:15.032Z,17.06
2016-09-19T08:18:55.579Z,17.01
2016-09-19T08:19:36.126Z,17.15
2016-09-19T08:20:16.673Z,17.04
2016-09-19T08:20:57.201Z,17.07
2016-09-19T08:21:37.737Z,17.03
2016-09-19T08:22:18.268Z,17.07
2016-09-19T08:22:58.784Z,17.14
2016-09-19T08:23:39.321Z,17.06
2016-09-19T08:24:19.863Z,17.15
2016-09-19T08:25:00.411Z,17.14
2016-09-19T08:25:40.959Z,17.15
2016-09-19T08:26:21.479Z,17.16
2016-09-19T08:27:02.025Z,17.22
2016-09-19T08:27:42.569Z,17.18
2016-09-19T08:28:23.099Z,17.18
2016-09-19T08:29:03.642Z,17.16
2016-09-19T08:29:44.173Z,17.21
2016-09-19T08:30:24.707Z,17.15
2016-09-19T08:31:05.236Z,17.22
2016-09-19T08:31:45.753Z,17.21
2016-09-19T08:32:26.306Z,17.15
2016-09-19T08:33:06.838Z,17.23
2016-09-19T08:33:47.388Z,17.23
2016-09-19T08:34:27.939Z,17.21
2016-09-19T08:35:08.472Z,17.21
2016-09-19T08:35:49.007Z,17.3
2016-09-19T08:36:29.551Z,17.25
2016-09-19T08:37:10.086Z,17.21
2016-09-19T08:37:50.629Z,17.16
2016-09-19T08:38:31.150Z,17.31
2016-09-19T08:39:11.713Z,17.21
2016-09-19T08:39:52.269Z,17.22
2016-09-19T08:40:32.784Z,17.25
2016-09-19T08:41:13.330Z,17.23
2016-09-19T08:41:53.863Z,17.25
2016-09-19T08:42:34.397Z,17.25
2016-09-19T08:43:14.935Z,17.3
2016-09-19T08:43:55.485Z,17.19
2016-09-19T08:44:36.016Z,17.23
2016-09-19T08:45:16.523Z,17.22
2016-09-19T08:45:57.059Z,17.26